Terminal Aerodrome Forecast
Issued by NWS

Current Version | Previous Version | Graphics & Text | Print | Product List | Glossary On
Versions: 1 2 3 4 5 6 7 8 9 10 11 12 13 14 15 16 17
070
FTUS41 KPBZ 221123
TAFHLG
TAF
KHLG 221123Z 2212/2312 19005KT P6SM SCT025 BKN040
     FM230200 20005KT P6SM BKN015=

USA.gov is the U.S. government's official web portal to all federal, state and local government web resources and services.